GEC8260 SBKP-SBEG
Flight info
| Callsign | GEC8260 |
|---|---|
| Flight time | 3h 8m |
| Altitude | 34000 |
| Route | VUPOG UM417 UMGUP DCT IRUMO |
| Aircraft | MD11/H-SDE1E2E3FGHIJ2J3J4J5M1RWXY/LB1D1 |
Departure
| Time | 2026-04-15 12:21 |
|---|---|
| Airport | Viracopos International Airport (SBKP) |
Arrival
| Time | 2026-04-15 15:29 |
|---|---|
| Airport | Eduardo Gomes International Airport (SBEG) |
| Time | Latitude | Longitude | Altitude | Speed | Heading |
|---|---|---|---|---|---|
| 2026-04-15 12:01 | -23.00507 | -47.14422 | 2165 ft | 0 kts | 218° |
| 2026-04-15 12:13 | -23.00493 | -47.14410 | 2156 ft | 4 kts | 217° |
| 2026-04-15 12:13 | -23.00471 | -47.14393 | 2156 ft | 4 kts | 216° |
| 2026-04-15 12:13 | -23.00450 | -47.14376 | 2156 ft | 3 kts | 218° |
| 2026-04-15 12:13 | -23.00433 | -47.14360 | 2156 ft | 4 kts | 241° |
| 2026-04-15 12:14 | -23.00426 | -47.14343 | 2156 ft | 4 kts | 294° |
| 2026-04-15 12:14 | -23.00440 | -47.14325 | 2156 ft | 4 kts | 326° |
| 2026-04-15 12:14 | -23.00462 | -47.14309 | 2156 ft | 4 kts | 320° |
| 2026-04-15 12:14 | -23.00475 | -47.14297 | 2156 ft | 0 kts | 308° |
| 2026-04-15 12:17 | -23.00467 | -47.14308 | 2156 ft | 4 kts | 308° |
| 2026-04-15 12:17 | -23.00440 | -47.14345 | 2156 ft | 8 kts | 308° |
| 2026-04-15 12:17 | -23.00395 | -47.14408 | 2157 ft | 13 kts | 308° |
| 2026-04-15 12:18 | -23.00335 | -47.14492 | 2159 ft | 15 kts | 308° |
| 2026-04-15 12:18 | -23.00277 | -47.14573 | 2157 ft | 12 kts | 308° |
| 2026-04-15 12:18 | -23.00219 | -47.14654 | 2156 ft | 15 kts | 308° |
| 2026-04-15 12:18 | -23.00153 | -47.14746 | 2157 ft | 15 kts | 308° |
| 2026-04-15 12:19 | -23.00083 | -47.14803 | 2158 ft | 11 kts | 346° |
| 2026-04-15 12:19 | -23.00013 | -47.14802 | 2157 ft | 10 kts | 3° |
| 2026-04-15 12:19 | -22.99942 | -47.14778 | 2158 ft | 12 kts | 36° |
| 2026-04-15 12:19 | -22.99883 | -47.14708 | 2156 ft | 12 kts | 50° |
| 2026-04-15 12:20 | -22.99870 | -47.14669 | 2155 ft | 2 kts | 104° |
| 2026-04-15 12:20 | -22.99883 | -47.14649 | 2155 ft | 5 kts | 126° |
| 2026-04-15 12:20 | -22.99917 | -47.14601 | 2156 ft | 25 kts | 127° |
| 2026-04-15 12:20 | -23.00197 | -47.14208 | 2160 ft | 104 kts | 128° |
| 2026-04-15 12:21 | -23.00766 | -47.13412 | 2156 ft | 163 kts | 128° |
| 2026-04-15 12:21 | -23.01520 | -47.12340 | 2404 ft | 183 kts | 127° |
| 2026-04-15 12:21 | -23.02134 | -47.11169 | 3214 ft | 177 kts | 103° |
| 2026-04-15 12:21 | -23.02163 | -47.09835 | 3802 ft | 179 kts | 81° |
| 2026-04-15 12:22 | -23.01927 | -47.08509 | 4499 ft | 182 kts | 78° |
| 2026-04-15 12:22 | -23.01632 | -47.07107 | 4861 ft | 201 kts | 75° |
| 2026-04-15 12:22 | -23.01274 | -47.05596 | 5311 ft | 211 kts | 75° |
| 2026-04-15 12:22 | -23.00895 | -47.03958 | 5581 ft | 236 kts | 75° |
| 2026-04-15 12:23 | -23.00330 | -47.02240 | 5869 ft | 253 kts | 57° |
| 2026-04-15 12:23 | -22.99126 | -47.00796 | 6025 ft | 274 kts | 41° |
| 2026-04-15 12:23 | -22.97608 | -46.99464 | 6639 ft | 285 kts | 38° |
| 2026-04-15 12:23 | -22.96006 | -46.98135 | 6984 ft | 290 kts | 37° |
| 2026-04-15 12:24 | -22.94392 | -46.96809 | 7334 ft | 292 kts | 37° |
| 2026-04-15 12:24 | -22.92750 | -46.95493 | 7681 ft | 295 kts | 33° |
| 2026-04-15 12:24 | -22.90892 | -46.94551 | 8110 ft | 298 kts | 11° |
| 2026-04-15 12:24 | -22.88828 | -46.94484 | 8915 ft | 303 kts | 349° |
| 2026-04-15 12:25 | -22.86912 | -46.95327 | 9694 ft | 305 kts | 326° |
| 2026-04-15 12:25 | -22.85193 | -46.96740 | 10175 ft | 320 kts | 320° |
| 2026-04-15 12:25 | -22.83429 | -46.98380 | 10290 ft | 348 kts | 318° |
| 2026-04-15 12:25 | -22.81545 | -47.00168 | 10531 ft | 369 kts | 318° |
| 2026-04-15 12:26 | -22.79590 | -47.02005 | 11227 ft | 374 kts | 319° |
| 2026-04-15 12:26 | -22.77605 | -47.03845 | 11991 ft | 377 kts | 319° |
| 2026-04-15 12:26 | -22.75601 | -47.05684 | 12802 ft | 379 kts | 319° |
| 2026-04-15 12:26 | -22.73575 | -47.07530 | 13537 ft | 382 kts | 319° |
| 2026-04-15 12:27 | -22.71528 | -47.09387 | 14209 ft | 385 kts | 319° |
| 2026-04-15 12:27 | -22.69489 | -47.11233 | 14784 ft | 389 kts | 319° |
| 2026-04-15 12:27 | -22.67402 | -47.13120 | 15367 ft | 393 kts | 319° |
| 2026-04-15 12:27 | -22.65301 | -47.15018 | 15947 ft | 396 kts | 319° |
| 2026-04-15 12:28 | -22.63176 | -47.16937 | 16509 ft | 399 kts | 319° |
| 2026-04-15 12:28 | -22.61032 | -47.18872 | 17052 ft | 403 kts | 320° |
| 2026-04-15 12:28 | -22.58868 | -47.20824 | 17595 ft | 407 kts | 320° |
| 2026-04-15 12:28 | -22.56686 | -47.22792 | 18146 ft | 409 kts | 320° |
| 2026-04-15 12:29 | -22.54489 | -47.24773 | 18635 ft | 413 kts | 320° |
| 2026-04-15 12:29 | -22.52300 | -47.26744 | 19047 ft | 417 kts | 320° |
| 2026-04-15 12:29 | -22.50064 | -47.28759 | 19461 ft | 420 kts | 320° |
| 2026-04-15 12:29 | -22.47815 | -47.30784 | 19906 ft | 423 kts | 320° |
| 2026-04-15 12:30 | -22.45543 | -47.32829 | 20318 ft | 426 kts | 319° |
| 2026-04-15 12:30 | -22.43256 | -47.34887 | 20730 ft | 429 kts | 319° |
| 2026-04-15 12:30 | -22.40951 | -47.36959 | 21154 ft | 432 kts | 319° |
| 2026-04-15 12:30 | -22.38629 | -47.39046 | 21578 ft | 436 kts | 319° |
| 2026-04-15 12:31 | -22.36290 | -47.41148 | 22004 ft | 439 kts | 319° |
| 2026-04-15 12:31 | -22.33964 | -47.43237 | 22427 ft | 442 kts | 319° |
| 2026-04-15 12:31 | -22.31588 | -47.45370 | 22870 ft | 446 kts | 319° |
| 2026-04-15 12:31 | -22.29194 | -47.47518 | 23324 ft | 449 kts | 318° |
| 2026-04-15 12:32 | -22.26781 | -47.49681 | 23762 ft | 453 kts | 318° |
| 2026-04-15 12:32 | -22.24356 | -47.51855 | 24150 ft | 455 kts | 318° |
| 2026-04-15 12:32 | -22.21910 | -47.54040 | 24581 ft | 458 kts | 318° |
| 2026-04-15 12:32 | -22.19450 | -47.56234 | 25010 ft | 460 kts | 318° |
| 2026-04-15 12:33 | -22.17012 | -47.58411 | 25423 ft | 462 kts | 318° |
| 2026-04-15 12:33 | -22.14529 | -47.60628 | 25874 ft | 465 kts | 319° |
| 2026-04-15 12:33 | -22.12032 | -47.62859 | 26283 ft | 467 kts | 318° |
| 2026-04-15 12:33 | -22.09521 | -47.65102 | 26699 ft | 470 kts | 318° |
| 2026-04-15 12:34 | -22.06998 | -47.67356 | 27104 ft | 472 kts | 318° |
| 2026-04-15 12:34 | -22.04466 | -47.69617 | 27510 ft | 475 kts | 318° |
| 2026-04-15 12:34 | -22.01916 | -47.71893 | 27911 ft | 477 kts | 318° |
| 2026-04-15 12:34 | -21.99349 | -47.74182 | 28344 ft | 479 kts | 318° |
| 2026-04-15 12:35 | -21.96781 | -47.76472 | 28719 ft | 481 kts | 318° |
| 2026-04-15 12:35 | -21.94228 | -47.78748 | 29100 ft | 484 kts | 318° |
| 2026-04-15 12:35 | -21.91626 | -47.81065 | 29491 ft | 486 kts | 319° |
| 2026-04-15 12:35 | -21.89012 | -47.83393 | 29837 ft | 489 kts | 319° |
| 2026-04-15 12:36 | -21.86384 | -47.85731 | 30218 ft | 490 kts | 319° |
| 2026-04-15 12:36 | -21.83758 | -47.88066 | 30642 ft | 489 kts | 319° |
| 2026-04-15 12:36 | -21.81143 | -47.90389 | 31094 ft | 486 kts | 318° |
| 2026-04-15 12:36 | -21.78541 | -47.92700 | 31543 ft | 484 kts | 318° |
| 2026-04-15 12:37 | -21.75987 | -47.94967 | 31989 ft | 481 kts | 318° |
| 2026-04-15 12:37 | -21.73412 | -47.97252 | 32412 ft | 479 kts | 318° |
| 2026-04-15 12:37 | -21.70855 | -47.99520 | 32819 ft | 477 kts | 318° |
| 2026-04-15 12:37 | -21.68302 | -48.01784 | 33193 ft | 474 kts | 318° |
| 2026-04-15 12:38 | -21.65765 | -48.04033 | 33579 ft | 471 kts | 318° |
| 2026-04-15 12:38 | -21.63243 | -48.06267 | 33930 ft | 469 kts | 318° |
| 2026-04-15 12:38 | -21.60719 | -48.08503 | 34058 ft | 470 kts | 318° |
| 2026-04-15 12:39 | -21.55682 | -48.12951 | 34095 ft | 472 kts | 318° |
| 2026-04-15 12:39 | -21.50600 | -48.17433 | 34093 ft | 473 kts | 318° |
| 2026-04-15 12:40 | -21.45520 | -48.21916 | 34091 ft | 472 kts | 318° |
| 2026-04-15 12:40 | -21.40446 | -48.26394 | 34085 ft | 473 kts | 318° |
| 2026-04-15 12:41 | -21.35394 | -48.30848 | 34090 ft | 473 kts | 318° |
| 2026-04-15 12:41 | -21.30305 | -48.35330 | 34088 ft | 473 kts | 318° |
| 2026-04-15 12:42 | -21.25216 | -48.39809 | 34082 ft | 473 kts | 318° |
| 2026-04-15 12:42 | -21.20126 | -48.44283 | 34084 ft | 474 kts | 318° |
| 2026-04-15 12:43 | -21.15073 | -48.48721 | 34078 ft | 472 kts | 319° |
| 2026-04-15 12:43 | -21.09992 | -48.53180 | 34080 ft | 472 kts | 319° |
| 2026-04-15 12:44 | -21.04909 | -48.57637 | 34064 ft | 472 kts | 318° |
| 2026-04-15 12:44 | -20.99816 | -48.62098 | 34068 ft | 474 kts | 319° |
| 2026-04-15 12:45 | -20.94741 | -48.66538 | 34070 ft | 474 kts | 319° |
| 2026-04-15 12:45 | -20.89635 | -48.70974 | 34074 ft | 473 kts | 320° |
| 2026-04-15 12:46 | -20.84335 | -48.75161 | 34065 ft | 474 kts | 322° |
| 2026-04-15 12:46 | -20.78927 | -48.79213 | 34082 ft | 475 kts | 323° |
| 2026-04-15 12:47 | -20.73553 | -48.83238 | 34074 ft | 475 kts | 323° |
| 2026-04-15 12:47 | -20.68153 | -48.87306 | 34067 ft | 475 kts | 322° |
| 2026-04-15 12:48 | -20.62762 | -48.91373 | 34064 ft | 475 kts | 322° |
| 2026-04-15 12:48 | -20.57359 | -48.95446 | 34066 ft | 475 kts | 322° |
| 2026-04-15 12:49 | -20.51990 | -48.99490 | 34061 ft | 475 kts | 322° |
| 2026-04-15 12:49 | -20.46582 | -49.03558 | 34062 ft | 476 kts | 322° |
| 2026-04-15 12:50 | -20.41174 | -49.07623 | 34047 ft | 476 kts | 322° |
| 2026-04-15 12:50 | -20.35778 | -49.11675 | 34063 ft | 473 kts | 322° |
| 2026-04-15 12:51 | -20.30441 | -49.15679 | 34054 ft | 473 kts | 322° |
| 2026-04-15 12:51 | -20.25062 | -49.19713 | 34053 ft | 473 kts | 322° |
| 2026-04-15 12:52 | -20.19678 | -49.23743 | 34051 ft | 474 kts | 322° |
| 2026-04-15 12:52 | -20.14281 | -49.27771 | 34056 ft | 474 kts | 322° |
| 2026-04-15 12:53 | -20.08924 | -49.31771 | 34055 ft | 472 kts | 322° |
| 2026-04-15 12:53 | -20.03561 | -49.35777 | 34050 ft | 471 kts | 322° |
| 2026-04-15 12:54 | -19.98208 | -49.39774 | 34049 ft | 471 kts | 322° |
| 2026-04-15 12:54 | -19.92841 | -49.43777 | 34047 ft | 471 kts | 322° |
| 2026-04-15 12:55 | -19.87508 | -49.47752 | 34044 ft | 471 kts | 322° |
| 2026-04-15 12:55 | -19.82138 | -49.51750 | 34050 ft | 471 kts | 322° |
| 2026-04-15 12:56 | -19.76779 | -49.55736 | 34048 ft | 469 kts | 322° |
| 2026-04-15 12:56 | -19.71439 | -49.59705 | 34035 ft | 468 kts | 322° |
| 2026-04-15 12:57 | -19.66142 | -49.63640 | 34044 ft | 468 kts | 322° |
| 2026-04-15 12:57 | -19.60802 | -49.67603 | 34042 ft | 468 kts | 322° |
| 2026-04-15 12:58 | -19.55459 | -49.71565 | 34043 ft | 469 kts | 322° |
| 2026-04-15 12:58 | -19.50148 | -49.75494 | 34039 ft | 468 kts | 322° |
| 2026-04-15 12:59 | -19.42140 | -49.81409 | 34034 ft | 467 kts | 322° |
| 2026-04-15 12:59 | -19.36810 | -49.85348 | 34023 ft | 468 kts | 322° |
| 2026-04-15 13:00 | -19.31463 | -49.89286 | 34030 ft | 468 kts | 322° |
| 2026-04-15 13:00 | -19.26143 | -49.93188 | 34041 ft | 468 kts | 322° |
| 2026-04-15 13:01 | -19.20786 | -49.97114 | 34032 ft | 468 kts | 322° |
| 2026-04-15 13:01 | -19.15428 | -50.01040 | 34031 ft | 468 kts | 322° |
| 2026-04-15 13:02 | -19.10068 | -50.04964 | 34030 ft | 468 kts | 322° |
| 2026-04-15 13:02 | -19.04715 | -50.08880 | 34026 ft | 468 kts | 322° |
| 2026-04-15 13:03 | -18.99392 | -50.12770 | 34031 ft | 468 kts | 322° |
| 2026-04-15 13:03 | -18.94034 | -50.16684 | 34021 ft | 468 kts | 322° |
| 2026-04-15 13:04 | -18.88670 | -50.20598 | 34019 ft | 469 kts | 322° |
| 2026-04-15 13:04 | -18.83346 | -50.24480 | 34018 ft | 468 kts | 322° |
| 2026-04-15 13:05 | -18.77986 | -50.28385 | 34019 ft | 468 kts | 322° |
| 2026-04-15 13:05 | -18.72630 | -50.32284 | 34019 ft | 468 kts | 322° |
| 2026-04-15 13:06 | -18.67267 | -50.36186 | 34017 ft | 468 kts | 322° |
| 2026-04-15 13:06 | -18.61933 | -50.40054 | 34017 ft | 468 kts | 322° |
| 2026-04-15 13:07 | -18.56566 | -50.43945 | 34015 ft | 468 kts | 322° |
| 2026-04-15 13:07 | -18.51207 | -50.47833 | 34023 ft | 467 kts | 322° |
| 2026-04-15 13:08 | -18.45847 | -50.51717 | 34020 ft | 468 kts | 322° |
| 2026-04-15 13:08 | -18.40521 | -50.55576 | 34026 ft | 468 kts | 322° |
| 2026-04-15 13:09 | -18.35152 | -50.59462 | 34029 ft | 468 kts | 322° |
| 2026-04-15 13:09 | -18.29782 | -50.63346 | 34027 ft | 468 kts | 322° |
| 2026-04-15 13:10 | -18.24411 | -50.67226 | 34031 ft | 468 kts | 322° |
| 2026-04-15 13:10 | -18.19069 | -50.71083 | 34028 ft | 469 kts | 322° |
| 2026-04-15 13:11 | -18.13694 | -50.74959 | 34030 ft | 469 kts | 322° |
| 2026-04-15 13:11 | -18.08315 | -50.78836 | 34027 ft | 469 kts | 322° |
| 2026-04-15 13:12 | -18.02935 | -50.82711 | 34021 ft | 469 kts | 322° |
| 2026-04-15 13:12 | -17.97576 | -50.86568 | 34028 ft | 470 kts | 322° |
| 2026-04-15 13:13 | -17.92175 | -50.90452 | 34028 ft | 470 kts | 322° |
| 2026-04-15 13:13 | -17.86779 | -50.94326 | 34032 ft | 470 kts | 323° |
| 2026-04-15 13:14 | -17.81375 | -50.98197 | 34029 ft | 470 kts | 323° |
| 2026-04-15 13:14 | -17.76001 | -51.02049 | 34030 ft | 472 kts | 322° |
| 2026-04-15 13:15 | -17.70586 | -51.05930 | 34030 ft | 472 kts | 322° |
| 2026-04-15 13:15 | -17.65165 | -51.09812 | 34031 ft | 472 kts | 322° |
| 2026-04-15 13:16 | -17.59742 | -51.13693 | 34033 ft | 472 kts | 323° |
| 2026-04-15 13:16 | -17.54319 | -51.17572 | 34031 ft | 472 kts | 323° |
| 2026-04-15 13:17 | -17.48931 | -51.21423 | 34028 ft | 472 kts | 323° |
| 2026-04-15 13:17 | -17.43506 | -51.25297 | 34030 ft | 472 kts | 323° |
| 2026-04-15 13:18 | -17.38081 | -51.29168 | 34028 ft | 472 kts | 323° |
| 2026-04-15 13:18 | -17.32659 | -51.33032 | 34025 ft | 473 kts | 323° |
| 2026-04-15 13:19 | -17.27262 | -51.36881 | 34031 ft | 472 kts | 323° |
| 2026-04-15 13:19 | -17.21835 | -51.40751 | 34025 ft | 472 kts | 323° |
| 2026-04-15 13:20 | -17.16407 | -51.44620 | 34025 ft | 472 kts | 323° |
| 2026-04-15 13:20 | -17.10977 | -51.48487 | 34020 ft | 472 kts | 323° |
| 2026-04-15 13:21 | -17.05574 | -51.52334 | 34016 ft | 473 kts | 322° |
| 2026-04-15 13:21 | -17.00131 | -51.56204 | 34015 ft | 474 kts | 323° |
| 2026-04-15 13:22 | -16.94684 | -51.60075 | 34012 ft | 473 kts | 323° |
| 2026-04-15 13:22 | -16.89247 | -51.63936 | 34010 ft | 472 kts | 323° |
| 2026-04-15 13:23 | -16.83841 | -51.67773 | 34000 ft | 474 kts | 323° |
| 2026-04-15 13:23 | -16.78379 | -51.71639 | 34002 ft | 474 kts | 323° |
| 2026-04-15 13:24 | -16.72920 | -51.75499 | 33994 ft | 474 kts | 323° |
| 2026-04-15 13:24 | -16.67456 | -51.79364 | 34009 ft | 474 kts | 323° |
| 2026-04-15 13:25 | -16.62029 | -51.83201 | 33987 ft | 475 kts | 323° |
| 2026-04-15 13:25 | -16.56550 | -51.87072 | 33995 ft | 476 kts | 323° |
| 2026-04-15 13:26 | -16.51065 | -51.90945 | 33996 ft | 476 kts | 323° |
| 2026-04-15 13:26 | -16.45578 | -51.94817 | 33992 ft | 476 kts | 323° |
| 2026-04-15 13:27 | -16.40133 | -51.98656 | 33997 ft | 476 kts | 323° |
| 2026-04-15 13:27 | -16.34640 | -52.02526 | 33985 ft | 477 kts | 323° |
| 2026-04-15 13:28 | -16.29133 | -52.06387 | 33981 ft | 477 kts | 324° |
| 2026-04-15 13:28 | -16.23624 | -52.10144 | 33989 ft | 476 kts | 324° |
| 2026-04-15 13:29 | -16.18067 | -52.13905 | 33981 ft | 476 kts | 324° |
| 2026-04-15 13:29 | -16.12518 | -52.17665 | 33980 ft | 477 kts | 325° |
| 2026-04-15 13:30 | -16.06950 | -52.21441 | 33994 ft | 478 kts | 325° |
| 2026-04-15 13:30 | -16.01417 | -52.25192 | 34003 ft | 478 kts | 325° |
| 2026-04-15 13:31 | -15.95847 | -52.28965 | 34018 ft | 478 kts | 325° |
| 2026-04-15 13:31 | -15.90287 | -52.32729 | 34018 ft | 477 kts | 325° |
| 2026-04-15 13:32 | -15.84742 | -52.36480 | 34020 ft | 476 kts | 325° |
| 2026-04-15 13:32 | -15.79193 | -52.40231 | 34022 ft | 476 kts | 325° |
| 2026-04-15 13:33 | -15.73681 | -52.43955 | 34013 ft | 476 kts | 325° |
| 2026-04-15 13:33 | -15.68132 | -52.47701 | 34007 ft | 476 kts | 325° |
| 2026-04-15 13:34 | -15.62581 | -52.51447 | 33980 ft | 476 kts | 325° |
| 2026-04-15 13:34 | -15.57063 | -52.55162 | 33987 ft | 475 kts | 326° |
| 2026-04-15 13:35 | -15.51521 | -52.58889 | 33982 ft | 475 kts | 326° |
| 2026-04-15 13:35 | -15.45976 | -52.62621 | 33988 ft | 475 kts | 326° |
| 2026-04-15 13:36 | -15.40431 | -52.66352 | 33980 ft | 475 kts | 326° |
| 2026-04-15 13:36 | -15.34864 | -52.70096 | 33985 ft | 478 kts | 326° |
| 2026-04-15 13:37 | -15.29324 | -52.73819 | 33982 ft | 478 kts | 326° |
| 2026-04-15 13:37 | -15.23747 | -52.77565 | 33985 ft | 477 kts | 326° |
| 2026-04-15 13:38 | -15.18183 | -52.81299 | 33979 ft | 477 kts | 326° |
| 2026-04-15 13:38 | -15.12614 | -52.85034 | 33978 ft | 477 kts | 326° |
| 2026-04-15 13:39 | -15.07080 | -52.88744 | 33978 ft | 477 kts | 326° |
| 2026-04-15 13:39 | -15.01517 | -52.92471 | 33979 ft | 477 kts | 326° |
| 2026-04-15 13:40 | -14.95946 | -52.96200 | 33979 ft | 477 kts | 326° |
| 2026-04-15 13:40 | -14.90377 | -52.99926 | 33978 ft | 477 kts | 326° |
| 2026-04-15 13:41 | -14.84825 | -53.03629 | 33979 ft | 478 kts | 326° |
| 2026-04-15 13:41 | -14.79123 | -53.07160 | 33982 ft | 478 kts | 329° |
| 2026-04-15 13:42 | -14.73328 | -53.10549 | 33980 ft | 479 kts | 329° |
| 2026-04-15 13:42 | -14.67529 | -53.13933 | 33981 ft | 479 kts | 329° |
| 2026-04-15 13:43 | -14.61774 | -53.17310 | 33985 ft | 479 kts | 329° |
| 2026-04-15 13:43 | -14.55975 | -53.20720 | 33983 ft | 480 kts | 329° |
| 2026-04-15 13:44 | -14.50174 | -53.24129 | 33981 ft | 480 kts | 329° |
| 2026-04-15 13:44 | -14.44380 | -53.27532 | 33984 ft | 480 kts | 329° |
| 2026-04-15 13:45 | -14.38618 | -53.30913 | 33978 ft | 479 kts | 329° |
| 2026-04-15 13:47 | -14.15421 | -53.44505 | 33979 ft | 480 kts | 329° |
| 2026-04-15 13:47 | -14.09605 | -53.47906 | 33981 ft | 481 kts | 330° |
| 2026-04-15 13:48 | -14.03775 | -53.51309 | 33982 ft | 482 kts | 330° |
| 2026-04-15 13:48 | -13.97944 | -53.54714 | 33982 ft | 482 kts | 330° |
| 2026-04-15 13:49 | -13.92151 | -53.58094 | 33982 ft | 482 kts | 330° |
| 2026-04-15 13:49 | -13.86313 | -53.61484 | 33979 ft | 482 kts | 329° |
| 2026-04-15 13:50 | -13.80480 | -53.64867 | 33980 ft | 481 kts | 329° |
| 2026-04-15 13:50 | -13.74640 | -53.68252 | 33977 ft | 482 kts | 330° |
| 2026-04-15 13:51 | -13.68794 | -53.71641 | 33977 ft | 482 kts | 329° |
| 2026-04-15 13:51 | -13.62988 | -53.75003 | 33970 ft | 482 kts | 330° |
| 2026-04-15 13:52 | -13.57144 | -53.78387 | 33974 ft | 483 kts | 330° |
| 2026-04-15 13:52 | -13.51291 | -53.81773 | 33975 ft | 483 kts | 330° |
| 2026-04-15 13:53 | -13.45442 | -53.85155 | 33973 ft | 483 kts | 330° |
| 2026-04-15 13:53 | -13.39633 | -53.88512 | 33972 ft | 482 kts | 330° |
| 2026-04-15 13:54 | -13.33783 | -53.91891 | 33971 ft | 482 kts | 330° |
| 2026-04-15 13:54 | -13.27923 | -53.95273 | 33973 ft | 483 kts | 330° |
| 2026-04-15 13:55 | -13.22102 | -53.98631 | 33971 ft | 483 kts | 330° |
| 2026-04-15 13:55 | -13.16249 | -54.02001 | 33967 ft | 482 kts | 330° |
| 2026-04-15 13:56 | -13.10395 | -54.05370 | 33972 ft | 482 kts | 330° |
| 2026-04-15 13:56 | -13.04545 | -54.08738 | 33972 ft | 482 kts | 330° |
| 2026-04-15 13:57 | -12.98732 | -54.12085 | 33968 ft | 482 kts | 330° |
| 2026-04-15 13:57 | -12.92875 | -54.15452 | 33971 ft | 483 kts | 330° |
| 2026-04-15 13:58 | -12.87021 | -54.18814 | 33968 ft | 483 kts | 331° |
| 2026-04-15 13:58 | -12.81165 | -54.22176 | 33969 ft | 482 kts | 331° |
| 2026-04-15 13:59 | -12.75343 | -54.25517 | 33973 ft | 482 kts | 331° |
| 2026-04-15 13:59 | -12.69500 | -54.28869 | 33965 ft | 480 kts | 331° |
| 2026-04-15 14:00 | -12.63672 | -54.32209 | 33970 ft | 479 kts | 331° |
| 2026-04-15 14:00 | -12.57851 | -54.35543 | 33968 ft | 480 kts | 331° |
| 2026-04-15 14:01 | -12.49149 | -54.40526 | 33967 ft | 480 kts | 331° |
| 2026-04-15 14:02 | -12.43322 | -54.43862 | 33965 ft | 479 kts | 331° |
| 2026-04-15 14:02 | -12.37496 | -54.47195 | 33963 ft | 480 kts | 331° |
| 2026-04-15 14:03 | -12.31659 | -54.50533 | 33968 ft | 480 kts | 331° |
| 2026-04-15 14:03 | -12.25870 | -54.53840 | 33964 ft | 479 kts | 331° |
| 2026-04-15 14:04 | -12.20033 | -54.57173 | 33969 ft | 482 kts | 332° |
| 2026-04-15 14:04 | -12.14173 | -54.60518 | 33967 ft | 483 kts | 331° |
| 2026-04-15 14:05 | -12.08312 | -54.63863 | 33963 ft | 482 kts | 332° |
| 2026-04-15 14:05 | -12.02495 | -54.67181 | 33964 ft | 482 kts | 331° |
| 2026-04-15 14:06 | -11.96633 | -54.70524 | 33960 ft | 483 kts | 332° |
| 2026-04-15 14:06 | -11.90751 | -54.73876 | 33963 ft | 485 kts | 331° |
| 2026-04-15 14:07 | -11.84852 | -54.77236 | 33963 ft | 486 kts | 331° |
| 2026-04-15 14:07 | -11.78984 | -54.80577 | 33961 ft | 486 kts | 331° |
| 2026-04-15 14:08 | -11.73076 | -54.83939 | 33964 ft | 486 kts | 331° |
| 2026-04-15 14:08 | -11.67156 | -54.87305 | 33963 ft | 489 kts | 331° |
| 2026-04-15 14:09 | -11.61203 | -54.90690 | 33958 ft | 490 kts | 331° |
| 2026-04-15 14:09 | -11.55244 | -54.94074 | 33962 ft | 491 kts | 331° |
| 2026-04-15 14:10 | -11.49315 | -54.97436 | 33964 ft | 492 kts | 331° |
| 2026-04-15 14:10 | -11.43343 | -55.00824 | 33962 ft | 491 kts | 331° |
| 2026-04-15 14:11 | -11.37371 | -55.04212 | 33962 ft | 493 kts | 332° |
| 2026-04-15 14:11 | -11.31376 | -55.07611 | 33956 ft | 494 kts | 331° |
| 2026-04-15 14:12 | -11.25420 | -55.10987 | 33959 ft | 493 kts | 332° |
| 2026-04-15 14:12 | -11.19436 | -55.14378 | 33957 ft | 492 kts | 332° |
| 2026-04-15 14:13 | -11.13441 | -55.17771 | 33962 ft | 494 kts | 331° |
| 2026-04-15 14:13 | -11.07427 | -55.21175 | 33961 ft | 495 kts | 331° |
| 2026-04-15 14:14 | -11.01459 | -55.24547 | 33953 ft | 493 kts | 331° |
| 2026-04-15 14:14 | -10.95461 | -55.27935 | 33954 ft | 492 kts | 332° |
| 2026-04-15 14:15 | -10.89479 | -55.31313 | 33949 ft | 491 kts | 332° |
| 2026-04-15 14:15 | -10.83504 | -55.34687 | 33958 ft | 492 kts | 331° |
| 2026-04-15 14:16 | -10.77548 | -55.38048 | 33958 ft | 493 kts | 331° |
| 2026-04-15 14:16 | -10.71537 | -55.41439 | 33951 ft | 493 kts | 331° |
| 2026-04-15 14:17 | -10.65545 | -55.44818 | 33952 ft | 492 kts | 331° |
| 2026-04-15 14:17 | -10.59548 | -55.48198 | 33952 ft | 493 kts | 331° |
| 2026-04-15 14:18 | -10.53571 | -55.51564 | 33952 ft | 495 kts | 331° |
| 2026-04-15 14:18 | -10.47550 | -55.54955 | 33953 ft | 494 kts | 331° |
| 2026-04-15 14:19 | -10.41532 | -55.58342 | 33951 ft | 495 kts | 331° |
| 2026-04-15 14:19 | -10.35514 | -55.61727 | 33951 ft | 495 kts | 331° |
| 2026-04-15 14:20 | -10.29532 | -55.65088 | 33948 ft | 494 kts | 331° |
| 2026-04-15 14:20 | -10.23496 | -55.68478 | 33954 ft | 496 kts | 331° |
| 2026-04-15 14:21 | -10.17443 | -55.71877 | 33948 ft | 497 kts | 331° |
| 2026-04-15 14:21 | -10.11399 | -55.75271 | 33947 ft | 496 kts | 331° |
| 2026-04-15 14:22 | -10.05396 | -55.78641 | 33947 ft | 497 kts | 331° |
| 2026-04-15 14:22 | -9.99351 | -55.82034 | 33954 ft | 497 kts | 331° |
| 2026-04-15 14:23 | -9.93304 | -55.85426 | 33965 ft | 496 kts | 331° |
| 2026-04-15 14:23 | -9.87258 | -55.88816 | 33970 ft | 497 kts | 331° |
| 2026-04-15 14:24 | -9.81245 | -55.92186 | 33946 ft | 497 kts | 331° |
| 2026-04-15 14:24 | -9.75198 | -55.95574 | 33951 ft | 496 kts | 331° |
| 2026-04-15 14:25 | -9.69149 | -55.98958 | 33952 ft | 497 kts | 332° |
| 2026-04-15 14:25 | -9.63080 | -56.02303 | 33946 ft | 497 kts | 332° |
| 2026-04-15 14:26 | -9.57044 | -56.05610 | 33943 ft | 496 kts | 332° |
| 2026-04-15 14:26 | -9.50967 | -56.08941 | 33943 ft | 497 kts | 332° |
| 2026-04-15 14:27 | -9.44888 | -56.12275 | 33946 ft | 497 kts | 332° |
| 2026-04-15 14:27 | -9.38853 | -56.15585 | 33948 ft | 496 kts | 332° |
| 2026-04-15 14:28 | -9.32782 | -56.18913 | 33948 ft | 497 kts | 332° |
| 2026-04-15 14:28 | -9.26703 | -56.22244 | 33947 ft | 497 kts | 332° |
| 2026-04-15 14:29 | -9.20626 | -56.25571 | 33944 ft | 497 kts | 332° |
| 2026-04-15 14:29 | -9.14588 | -56.28877 | 33943 ft | 497 kts | 332° |
| 2026-04-15 14:30 | -9.08506 | -56.32205 | 33948 ft | 497 kts | 332° |
| 2026-04-15 14:30 | -9.02421 | -56.35534 | 33945 ft | 497 kts | 332° |
| 2026-04-15 14:31 | -8.96342 | -56.38859 | 33941 ft | 497 kts | 332° |
| 2026-04-15 14:31 | -8.90254 | -56.42183 | 33942 ft | 497 kts | 332° |
| 2026-04-15 14:32 | -8.84207 | -56.45485 | 33940 ft | 497 kts | 332° |
| 2026-04-15 14:32 | -8.78112 | -56.48813 | 33943 ft | 498 kts | 332° |
| 2026-04-15 14:33 | -8.72011 | -56.52145 | 33946 ft | 498 kts | 332° |
| 2026-04-15 14:33 | -8.65916 | -56.55471 | 33948 ft | 498 kts | 332° |
| 2026-04-15 14:34 | -8.59854 | -56.58779 | 33950 ft | 499 kts | 331° |
| 2026-04-15 14:34 | -8.53740 | -56.62114 | 33947 ft | 499 kts | 332° |
| 2026-04-15 14:35 | -8.47626 | -56.65447 | 33948 ft | 499 kts | 332° |
| 2026-04-15 14:35 | -8.41553 | -56.68757 | 33950 ft | 499 kts | 332° |
| 2026-04-15 14:36 | -8.35438 | -56.72088 | 33955 ft | 499 kts | 332° |
| 2026-04-15 14:36 | -8.29329 | -56.75415 | 33952 ft | 499 kts | 332° |
| 2026-04-15 14:37 | -8.23213 | -56.78744 | 33954 ft | 499 kts | 332° |
| 2026-04-15 14:37 | -8.17137 | -56.82048 | 33955 ft | 500 kts | 332° |
| 2026-04-15 14:38 | -8.11017 | -56.85375 | 33948 ft | 499 kts | 332° |
| 2026-04-15 14:38 | -8.04898 | -56.88702 | 33951 ft | 499 kts | 332° |
| 2026-04-15 14:39 | -7.98780 | -56.92028 | 33948 ft | 499 kts | 331° |
| 2026-04-15 14:39 | -7.93017 | -56.95841 | 33945 ft | 499 kts | 322° |
| 2026-04-15 14:40 | -7.87599 | -57.00206 | 33942 ft | 499 kts | 320° |
| 2026-04-15 14:40 | -7.82205 | -57.04615 | 33944 ft | 499 kts | 321° |
| 2026-04-15 14:41 | -7.76768 | -57.08972 | 33949 ft | 499 kts | 321° |
| 2026-04-15 14:41 | -7.71349 | -57.13275 | 33947 ft | 499 kts | 321° |
| 2026-04-15 14:42 | -7.65889 | -57.17607 | 33940 ft | 499 kts | 321° |
| 2026-04-15 14:42 | -7.60431 | -57.21939 | 33943 ft | 499 kts | 321° |
| 2026-04-15 14:43 | -7.54978 | -57.26267 | 33943 ft | 499 kts | 321° |
| 2026-04-15 14:43 | -7.49560 | -57.30567 | 33945 ft | 499 kts | 321° |
| 2026-04-15 14:44 | -7.44105 | -57.34894 | 33937 ft | 499 kts | 321° |
| 2026-04-15 14:44 | -7.38650 | -57.39220 | 33941 ft | 499 kts | 321° |
| 2026-04-15 14:45 | -7.33202 | -57.43539 | 33942 ft | 499 kts | 321° |
| 2026-04-15 14:45 | -7.27783 | -57.47831 | 33940 ft | 499 kts | 321° |
| 2026-04-15 14:46 | -7.22326 | -57.52150 | 33946 ft | 499 kts | 321° |
| 2026-04-15 14:46 | -7.16870 | -57.56470 | 33944 ft | 499 kts | 321° |
| 2026-04-15 14:47 | -7.11414 | -57.60790 | 33937 ft | 499 kts | 321° |
| 2026-04-15 14:47 | -7.06001 | -57.65075 | 33938 ft | 499 kts | 322° |
| 2026-04-15 14:48 | -7.00558 | -57.69381 | 33940 ft | 497 kts | 322° |
| 2026-04-15 14:48 | -6.95122 | -57.73681 | 33941 ft | 497 kts | 322° |
| 2026-04-15 14:49 | -6.89684 | -57.77981 | 33942 ft | 497 kts | 322° |
| 2026-04-15 14:49 | -6.84291 | -57.82244 | 33939 ft | 497 kts | 322° |
| 2026-04-15 14:50 | -6.78858 | -57.86538 | 33936 ft | 497 kts | 322° |
| 2026-04-15 14:50 | -6.73420 | -57.90834 | 33934 ft | 497 kts | 322° |
| 2026-04-15 14:51 | -6.68017 | -57.95101 | 33934 ft | 497 kts | 322° |
| 2026-04-15 14:51 | -6.62585 | -57.99388 | 33939 ft | 496 kts | 322° |
| 2026-04-15 14:52 | -6.57157 | -58.03669 | 33932 ft | 495 kts | 322° |
| 2026-04-15 14:52 | -6.51737 | -58.07945 | 33937 ft | 496 kts | 322° |
| 2026-04-15 14:53 | -6.46309 | -58.12227 | 33935 ft | 496 kts | 322° |
| 2026-04-15 14:53 | -6.40920 | -58.16478 | 33936 ft | 495 kts | 322° |
| 2026-04-15 14:54 | -6.35500 | -58.20751 | 33940 ft | 495 kts | 322° |
| 2026-04-15 14:54 | -6.30090 | -58.25015 | 33937 ft | 494 kts | 322° |
| 2026-04-15 14:55 | -6.24686 | -58.29274 | 33931 ft | 494 kts | 322° |
| 2026-04-15 14:55 | -6.19309 | -58.33510 | 33933 ft | 494 kts | 322° |
| 2026-04-15 14:56 | -6.13897 | -58.37773 | 33932 ft | 494 kts | 322° |
| 2026-04-15 14:56 | -6.08490 | -58.42031 | 33936 ft | 494 kts | 322° |
| 2026-04-15 14:57 | -6.03083 | -58.46287 | 33933 ft | 494 kts | 322° |
| 2026-04-15 14:57 | -5.97716 | -58.50508 | 33932 ft | 494 kts | 322° |
| 2026-04-15 14:58 | -5.92308 | -58.54761 | 33933 ft | 494 kts | 322° |
| 2026-04-15 14:58 | -5.86899 | -58.59013 | 33933 ft | 494 kts | 322° |
| 2026-04-15 14:59 | -5.81491 | -58.63266 | 33933 ft | 494 kts | 322° |
| 2026-04-15 14:59 | -5.76119 | -58.67490 | 33931 ft | 494 kts | 322° |
| 2026-04-15 15:00 | -5.70715 | -58.71737 | 33930 ft | 494 kts | 322° |
| 2026-04-15 15:00 | -5.65304 | -58.75989 | 33927 ft | 494 kts | 322° |
| 2026-04-15 15:01 | -5.59892 | -58.80241 | 33926 ft | 494 kts | 322° |
| 2026-04-15 15:01 | -5.54520 | -58.84465 | 33929 ft | 494 kts | 322° |
| 2026-04-15 15:02 | -5.49109 | -58.88716 | 33926 ft | 494 kts | 322° |
| 2026-04-15 15:02 | -5.43701 | -58.92962 | 33923 ft | 494 kts | 322° |
| 2026-04-15 15:03 | -5.38288 | -58.97210 | 33924 ft | 494 kts | 322° |
| 2026-04-15 15:03 | -5.32910 | -59.01429 | 33922 ft | 494 kts | 322° |
| 2026-04-15 15:04 | -5.27494 | -59.05674 | 33924 ft | 494 kts | 322° |
| 2026-04-15 15:04 | -5.22079 | -59.09920 | 33926 ft | 494 kts | 322° |
| 2026-04-15 15:05 | -5.16697 | -59.14140 | 33921 ft | 494 kts | 323° |
| 2026-04-15 15:05 | -5.11277 | -59.18389 | 33922 ft | 494 kts | 323° |
| 2026-04-15 15:06 | -5.03150 | -59.24758 | 33919 ft | 494 kts | 323° |
| 2026-04-15 15:06 | -4.97729 | -59.29005 | 33921 ft | 494 kts | 323° |
| 2026-04-15 15:07 | -4.92342 | -59.33226 | 33918 ft | 495 kts | 323° |
| 2026-04-15 15:07 | -4.86910 | -59.37480 | 33920 ft | 496 kts | 323° |
| 2026-04-15 15:08 | -4.81474 | -59.41736 | 33925 ft | 496 kts | 323° |
| 2026-04-15 15:08 | -4.76046 | -59.45985 | 33924 ft | 495 kts | 323° |
| 2026-04-15 15:09 | -4.70648 | -59.50210 | 33924 ft | 495 kts | 323° |
| 2026-04-15 15:09 | -4.65214 | -59.54461 | 33919 ft | 495 kts | 323° |
| 2026-04-15 15:10 | -4.59778 | -59.58711 | 33919 ft | 495 kts | 323° |
| 2026-04-15 15:10 | -4.54433 | -59.62892 | 33736 ft | 480 kts | 323° |
| 2026-04-15 15:11 | -4.51828 | -59.64931 | 33432 ft | 476 kts | 323° |
| 2026-04-15 15:11 | -4.49218 | -59.66971 | 32946 ft | 476 kts | 323° |
| 2026-04-15 15:11 | -4.46607 | -59.69011 | 32319 ft | 476 kts | 323° |
| 2026-04-15 15:11 | -4.43998 | -59.71050 | 31717 ft | 476 kts | 323° |
| 2026-04-15 15:12 | -4.41383 | -59.73094 | 31089 ft | 477 kts | 323° |
| 2026-04-15 15:12 | -4.38761 | -59.75143 | 30489 ft | 478 kts | 323° |
| 2026-04-15 15:12 | -4.36133 | -59.77197 | 29854 ft | 480 kts | 323° |
| 2026-04-15 15:12 | -4.33533 | -59.79230 | 29179 ft | 481 kts | 323° |
| 2026-04-15 15:13 | -4.30891 | -59.81295 | 28529 ft | 482 kts | 323° |
| 2026-04-15 15:13 | -4.28240 | -59.83367 | 27898 ft | 484 kts | 322° |
| 2026-04-15 15:13 | -4.25582 | -59.85444 | 27279 ft | 485 kts | 322° |
| 2026-04-15 15:13 | -4.22917 | -59.87527 | 26645 ft | 487 kts | 322° |
| 2026-04-15 15:14 | -4.20246 | -59.89614 | 26009 ft | 488 kts | 322° |
| 2026-04-15 15:14 | -4.17569 | -59.91706 | 25368 ft | 488 kts | 323° |
| 2026-04-15 15:14 | -4.14813 | -59.93700 | 24717 ft | 490 kts | 330° |
| 2026-04-15 15:14 | -4.11761 | -59.95193 | 24025 ft | 487 kts | 340° |
| 2026-04-15 15:15 | -4.08606 | -59.96261 | 23298 ft | 483 kts | 344° |
| 2026-04-15 15:15 | -4.05383 | -59.97157 | 22513 ft | 478 kts | 346° |
| 2026-04-15 15:15 | -4.02183 | -59.98004 | 21797 ft | 474 kts | 346° |
| 2026-04-15 15:15 | -3.99016 | -59.98862 | 21105 ft | 469 kts | 345° |
| 2026-04-15 15:16 | -3.95888 | -59.99745 | 20429 ft | 465 kts | 345° |
| 2026-04-15 15:16 | -3.92794 | -60.00649 | 19759 ft | 461 kts | 344° |
| 2026-04-15 15:16 | -3.89724 | -60.01564 | 19091 ft | 458 kts | 343° |
| 2026-04-15 15:16 | -3.86691 | -60.02477 | 18442 ft | 454 kts | 343° |
| 2026-04-15 15:17 | -3.84694 | -60.03081 | 17963 ft | 451 kts | 343° |
| 2026-04-15 15:17 | -3.80741 | -60.04276 | 17045 ft | 445 kts | 344° |
| 2026-04-15 15:17 | -3.77791 | -60.05168 | 16382 ft | 440 kts | 343° |
| 2026-04-15 15:17 | -3.74876 | -60.06048 | 15740 ft | 434 kts | 344° |
| 2026-04-15 15:18 | -3.71994 | -60.06917 | 15128 ft | 431 kts | 344° |
| 2026-04-15 15:18 | -3.70096 | -60.07489 | 14725 ft | 429 kts | 344° |
| 2026-04-15 15:18 | -3.67260 | -60.08343 | 14118 ft | 424 kts | 345° |
| 2026-04-15 15:18 | -3.64450 | -60.09190 | 13504 ft | 419 kts | 344° |
| 2026-04-15 15:19 | -3.60772 | -60.10298 | 12656 ft | 414 kts | 344° |
| 2026-04-15 15:19 | -3.58920 | -60.10856 | 12238 ft | 411 kts | 344° |
| 2026-04-15 15:19 | -3.55319 | -60.11940 | 11480 ft | 405 kts | 344° |
| 2026-04-15 15:19 | -3.52633 | -60.12749 | 11115 ft | 401 kts | 344° |
| 2026-04-15 15:20 | -3.50012 | -60.13539 | 10964 ft | 384 kts | 344° |
| 2026-04-15 15:20 | -3.48345 | -60.14042 | 10874 ft | 371 kts | 345° |
| 2026-04-15 15:20 | -3.45931 | -60.14769 | 10740 ft | 354 kts | 345° |
| 2026-04-15 15:20 | -3.43628 | -60.15462 | 10602 ft | 338 kts | 345° |
| 2026-04-15 15:21 | -3.41424 | -60.16126 | 10429 ft | 325 kts | 345° |
| 2026-04-15 15:21 | -3.39283 | -60.16770 | 10044 ft | 320 kts | 345° |
| 2026-04-15 15:21 | -3.37141 | -60.17412 | 9472 ft | 322 kts | 346° |
| 2026-04-15 15:21 | -3.34293 | -60.18266 | 8735 ft | 322 kts | 345° |
| 2026-04-15 15:22 | -3.32842 | -60.18702 | 8387 ft | 321 kts | 345° |
| 2026-04-15 15:22 | -3.30701 | -60.19346 | 7856 ft | 321 kts | 345° |
| 2026-04-15 15:22 | -3.28604 | -60.19977 | 7383 ft | 319 kts | 345° |
| 2026-04-15 15:22 | -3.26485 | -60.20614 | 6892 ft | 317 kts | 346° |
| 2026-04-15 15:23 | -3.24356 | -60.21137 | 6415 ft | 314 kts | 351° |
| 2026-04-15 15:23 | -3.22219 | -60.21536 | 5954 ft | 311 kts | 352° |
| 2026-04-15 15:23 | -3.20097 | -60.21896 | 5489 ft | 308 kts | 353° |
| 2026-04-15 15:23 | -3.18001 | -60.22245 | 5122 ft | 302 kts | 353° |
| 2026-04-15 15:24 | -3.15945 | -60.22587 | 4768 ft | 297 kts | 353° |
| 2026-04-15 15:24 | -3.13943 | -60.22847 | 4394 ft | 291 kts | 359° |
| 2026-04-15 15:24 | -3.11938 | -60.22913 | 4031 ft | 286 kts | 1° |
| 2026-04-15 15:24 | -3.09958 | -60.22918 | 3672 ft | 283 kts | 2° |
| 2026-04-15 15:25 | -3.08022 | -60.22899 | 3326 ft | 269 kts | 5° |
| 2026-04-15 15:25 | -3.06294 | -60.22586 | 3041 ft | 236 kts | 24° |
| 2026-04-15 15:25 | -3.05018 | -60.21781 | 2980 ft | 203 kts | 46° |
| 2026-04-15 15:25 | -3.04241 | -60.20673 | 2928 ft | 191 kts | 67° |
| 2026-04-15 15:26 | -3.03942 | -60.19393 | 2726 ft | 188 kts | 82° |
| 2026-04-15 15:26 | -3.03820 | -60.18085 | 2528 ft | 187 kts | 86° |
| 2026-04-15 15:26 | -3.03786 | -60.16804 | 2324 ft | 188 kts | 88° |
| 2026-04-15 15:26 | -3.03789 | -60.15507 | 2047 ft | 185 kts | 89° |
| 2026-04-15 15:27 | -3.03810 | -60.14194 | 1785 ft | 189 kts | 90° |
| 2026-04-15 15:27 | -3.03830 | -60.12918 | 1499 ft | 173 kts | 90° |
| 2026-04-15 15:27 | -3.03832 | -60.11762 | 1279 ft | 163 kts | 91° |
| 2026-04-15 15:27 | -3.03837 | -60.10634 | 1085 ft | 162 kts | 90° |
| 2026-04-15 15:28 | -3.03842 | -60.09510 | 936 ft | 161 kts | 89° |
| 2026-04-15 15:28 | -3.03845 | -60.08381 | 732 ft | 169 kts | 89° |
| 2026-04-15 15:28 | -3.03848 | -60.07203 | 533 ft | 168 kts | 88° |
| 2026-04-15 15:28 | -3.03856 | -60.06037 | 332 ft | 164 kts | 89° |
| 2026-04-15 15:29 | -3.03857 | -60.05033 | 304 ft | 119 kts | 90° |
| 2026-04-15 15:29 | -3.03859 | -60.04406 | 309 ft | 61 kts | 90° |
| 2026-04-15 15:29 | -3.03859 | -60.04049 | 309 ft | 46 kts | 90° |
| 2026-04-15 15:29 | -3.03857 | -60.03829 | 308 ft | 17 kts | 79° |
| 2026-04-15 15:30 | -3.03789 | -60.03766 | 311 ft | 11 kts | 9° |
| 2026-04-15 15:30 | -3.03726 | -60.03785 | 313 ft | 9 kts | 323° |
| 2026-04-15 15:30 | -3.03683 | -60.03848 | 310 ft | 13 kts | 287° |
| 2026-04-15 15:30 | -3.03655 | -60.03953 | 309 ft | 18 kts | 285° |
| 2026-04-15 15:31 | -3.03618 | -60.04091 | 309 ft | 23 kts | 285° |
| 2026-04-15 15:31 | -3.03563 | -60.04248 | 311 ft | 24 kts | 300° |
| 2026-04-15 15:31 | -3.03452 | -60.04354 | 308 ft | 21 kts | 333° |
| 2026-04-15 15:31 | -3.03363 | -60.04384 | 310 ft | 7 kts | 343° |
| 2026-04-15 15:32 | -3.03325 | -60.04384 | 308 ft | 5 kts | 26° |
| 2026-04-15 15:32 | -3.03302 | -60.04346 | 309 ft | 8 kts | 73° |
| 2026-04-15 15:32 | -3.03283 | -60.04273 | 309 ft | 13 kts | 75° |
| 2026-04-15 15:32 | -3.03256 | -60.04170 | 309 ft | 17 kts | 75° |
| 2026-04-15 15:33 | -3.03238 | -60.04102 | 311 ft | 0 kts | 75° |
| 2026-04-15 15:33 | -3.03234 | -60.04090 | 311 ft | 4 kts | 71° |
| 2026-04-15 15:33 | -3.03220 | -60.04070 | 309 ft | 2 kts | 32° |
| 2026-04-15 15:33 | -3.03201 | -60.04074 | 309 ft | 5 kts | 347° |
| 2026-04-15 15:34 | -3.03167 | -60.04084 | 310 ft | 5 kts | 344° |
| 2026-04-15 15:34 | -3.03152 | -60.04088 | 309 ft | 0 kts | 344° |